createdAt,value
2024-01-29T00:02:05.744Z,65.40042138428988
2024-01-29T00:05:25.877Z,65.712002656848
2024-01-29T00:08:46.469Z,65.54734000192128
2024-01-29T00:12:06.537Z,65.74210507140324
2024-01-29T00:15:28.270Z,66.03749923528922
2024-01-29T00:18:48.228Z,66.507234855872
2024-01-29T00:22:08.505Z,67.19824175001204
2024-01-29T00:25:29.010Z,66.92607340198317
2024-01-29T00:28:48.808Z,67.02452682897017
2024-01-29T00:32:09.562Z,67.13791632545828
2024-01-29T00:35:29.755Z,67.37203122713315
2024-01-29T00:38:49.806Z,68.02109983828828
2024-01-29T00:42:21.953Z,67.66893420214498
2024-01-29T00:45:42.594Z,67.12099474741596
2024-01-29T00:51:26.264Z,66.72151409527143
2024-01-29T00:54:46.734Z,66.77790032914986
2024-01-29T00:58:06.866Z,67.5090523319924
2024-01-29T01:01:28.670Z,67.33722890811836
2024-01-29T01:04:49.213Z,67.1670539639619
2024-01-29T01:08:08.489Z,66.59286957308795
2024-01-29T01:11:28.775Z,66.46505866355017
2024-01-29T01:14:48.730Z,66.67791009172011
2024-01-29T01:19:30.477Z,66.85240711632075
2024-01-29T01:22:52.073Z,67.93021744270493
2024-01-29T01:26:12.717Z,68.00748430947911
2024-01-29T01:29:32.707Z,67.30365680679742
2024-01-29T01:32:52.731Z,67.01547894359881
2024-01-29T01:36:13.406Z,66.84270107997382
2024-01-29T01:39:33.529Z,66.13669685990965
2024-01-29T01:42:54.135Z,66.88566071824918
2024-01-29T01:46:15.244Z,65.86359620940178
2024-01-29T01:49:36.418Z,65.87815729264119
2024-01-29T01:52:56.716Z,65.90555928285515
2024-01-29T01:56:17.992Z,65.87521172468917
2024-01-29T01:59:38.272Z,66.1536634564029
2024-01-29T02:02:58.458Z,66.15633775177044
2024-01-29T02:06:18.521Z,66.15526606264729
2024-01-29T02:09:38.688Z,66.236206820263
2024-01-29T02:12:58.232Z,67.68552157434235
2024-01-29T02:16:18.685Z,67.92082558460791
2024-01-29T02:21:49.314Z,67.33150024086189
2024-01-29T02:25:09.348Z,67.40649995614434
2024-01-29T02:28:31.101Z,67.46513362657481
2024-01-29T02:31:51.064Z,68.4108897024773
2024-01-29T02:35:11.934Z,69.88131439496641
2024-01-29T02:39:36.741Z,70.98521557538056
2024-01-29T02:42:57.191Z,71.03628397321691
2024-01-29T02:46:17.923Z,71.42944343557471
2024-01-29T02:54:38.878Z,71.52597777589581
2024-01-29T02:57:59.833Z,72.10387125458982
2024-01-29T03:01:20.860Z,72.34818812461869
2024-01-29T03:04:40.737Z,73.03861877184883
2024-01-29T03:08:00.642Z,73.19743930122608
2024-01-29T03:11:21.726Z,73.20675658515825
2024-01-29T03:14:42.184Z,73.28789746888108
2024-01-29T03:18:02.972Z,69.59865156592669
2024-01-29T03:21:24.522Z,66.88548347934197
2024-01-29T03:24:45.677Z,65.8308617534174
2024-01-29T03:28:05.389Z,66.24937976838325
2024-01-29T03:31:25.572Z,67.91406749048778
2024-01-29T03:34:45.942Z,66.74989258185369
2024-01-29T03:38:06.743Z,65.7214645557311
2024-01-29T03:41:27.394Z,66.27728560737775
2024-01-29T03:44:48.422Z,67.08572347569435
2024-01-29T03:49:27.161Z,67.02065691999333
2024-01-29T03:52:48.170Z,68.4090085132991
2024-01-29T03:56:08.998Z,68.59766580312716
2024-01-29T04:00:17.807Z,67.93178813230936
2024-01-29T04:03:38.187Z,68.38544025747711
2024-01-29T04:06:59.916Z,69.45422263558122
2024-01-29T04:10:20.544Z,69.0166612063495
2024-01-29T04:13:41.431Z,66.68614671483664
2024-01-29T04:17:02.116Z,67.75768303800963
2024-01-29T04:20:22.793Z,67.81970956487946
2024-01-29T04:23:42.238Z,67.71704110756988
2024-01-29T04:27:02.819Z,67.81556604804335
2024-01-29T04:30:23.957Z,69.3221911702764
2024-01-29T04:33:44.489Z,69.84931826837307
2024-01-29T04:37:05.531Z,70.42673066624641
2024-01-29T04:40:27.048Z,70.66834112778137
2024-01-29T04:43:48.468Z,70.15731133128752
2024-01-29T04:47:08.797Z,69.88453124905766
2024-01-29T04:50:30.109Z,70.3073691791253
2024-01-29T04:53:50.692Z,70.78298626992371
2024-01-29T04:57:11.217Z,70.774847665869
2024-01-29T05:00:31.749Z,70.53878157429311
2024-01-29T05:03:51.769Z,69.21916880604957
2024-01-29T05:07:12.817Z,70.37586857447289
2024-01-29T05:10:33.464Z,70.27993339459982
2024-01-29T05:13:53.935Z,70.02807940308128
2024-01-29T05:19:40.678Z,68.87903305140507
2024-01-29T05:23:01.005Z,68.3511518224522
2024-01-29T05:26:21.682Z,68.19062850275063
2024-01-29T05:29:41.951Z,68.08280922496516
2024-01-29T05:33:31.609Z,68.25313708744979
2024-01-29T05:36:51.494Z,67.91261691430736
2024-01-29T05:40:12.333Z,68.99314982927382
2024-01-29T05:43:33.592Z,69.59947896274394
2024-01-29T05:46:53.911Z,68.80578605699337
2024-01-29T05:50:15.382Z,68.40738175560939
2024-01-29T05:54:03.269Z,69.13402167227358
2024-01-29T05:57:24.540Z,69.26199801179536
2024-01-29T06:00:45.229Z,67.63276453827145
2024-01-29T06:04:05.828Z,67.53990042722862
2024-01-29T06:07:27.552Z,67.4569565017456
2024-01-29T06:10:49.410Z,66.93480076455319
2024-01-29T06:14:10.211Z,68.38810811208744
2024-01-29T06:19:28.746Z,68.41605685051377
2024-01-29T06:22:49.552Z,66.76908499084801
2024-01-29T06:26:10.216Z,67.48887063355261
2024-01-29T06:30:59.929Z,69.14502980657265
2024-01-29T06:34:20.658Z,70.22137151263507
2024-01-29T06:39:40.865Z,69.69711654206529
2024-01-29T06:45:27.446Z,70.9097735445607
2024-01-29T06:48:48.635Z,71.60054033518918
2024-01-29T06:52:12.527Z,71.38261222307642
2024-01-29T06:55:36.926Z,69.59797656036288
2024-01-29T06:58:57.692Z,68.66623207078847
2024-01-29T07:02:18.885Z,67.97387613236621
2024-01-29T07:05:39.339Z,68.79427840294343
2024-01-29T07:09:00.464Z,68.7733095149606
2024-01-29T07:12:21.937Z,68.93554114087712
2024-01-29T07:15:49.175Z,68.38427863952542
2024-01-29T07:20:46.357Z,67.61472264713063
2024-01-29T07:24:06.936Z,68.25613250830553
2024-01-29T07:27:27.384Z,67.2996728341386
2024-01-29T07:30:47.892Z,67.21500533588664
2024-01-29T07:34:08.635Z,67.59957597998996
2024-01-29T07:37:29.496Z,67.25355742189201
2024-01-29T07:40:49.237Z,68.03874933447129
2024-01-29T07:44:51.957Z,67.37608357595074
2024-01-29T07:50:22.472Z,67.30545842474808
2024-01-29T07:53:42.752Z,66.92391498491769
2024-01-29T07:57:27.481Z,66.69009516798104
2024-01-29T08:00:47.884Z,67.95697794651895
2024-01-29T08:04:08.243Z,67.71614571736298
2024-01-29T08:07:28.983Z,67.81628091003326
2024-01-29T08:10:49.868Z,67.61264665543092
2024-01-29T08:14:09.819Z,68.22796457334483
2024-01-29T08:19:18.030Z,67.77233478623056
2024-01-29T08:22:40.619Z,67.59363832195346
2024-01-29T08:26:00.888Z,67.36081467134203
2024-01-29T08:29:21.749Z,67.65189831070519
2024-01-29T08:32:41.653Z,66.59734948581708
2024-01-29T08:38:20.414Z,66.79310808450866
2024-01-29T08:41:40.725Z,68.20207377665932
2024-01-29T08:45:01.092Z,68.11831459429426
2024-01-29T08:48:22.068Z,69.04791741128152
2024-01-29T08:51:42.277Z,69.5548154788386
2024-01-29T08:55:02.498Z,69.51774183442296
2024-01-29T08:58:25.412Z,70.14474317995473
2024-01-29T09:04:14.393Z,69.99035395256863
2024-01-29T09:07:34.788Z,70.90418233873598
2024-01-29T09:12:52.789Z,71.7371497243836
2024-01-29T09:17:43.595Z,70.80645183697268
2024-01-29T09:21:03.533Z,67.23616985152785
2024-01-29T09:24:23.705Z,65.99199266669719
2024-01-29T09:27:44.696Z,65.29959400908301
2024-01-29T09:31:05.093Z,64.18036984231391
2024-01-29T09:34:26.581Z,64.4070793176351
2024-01-29T09:47:05.652Z,62.266340048533166
2024-01-29T09:50:26.259Z,62.03391845546321
2024-01-29T09:53:46.469Z,61.760050700886346
2024-01-29T09:57:06.982Z,61.924186684760194
2024-01-29T10:00:29.908Z,61.79071900725329
2024-01-29T10:03:51.376Z,61.76335736491107
2024-01-29T10:07:11.677Z,61.75322940786598
2024-01-29T10:10:32.732Z,61.24483653151064
2024-01-29T10:13:53.006Z,61.09535401457844
2024-01-29T10:17:13.846Z,60.97536099585174
2024-01-29T10:23:08.692Z,60.17663687496437
2024-01-29T10:26:29.864Z,59.69104311077113
2024-01-29T10:29:50.079Z,59.29783219969142
2024-01-29T10:33:10.855Z,60.124478327589195
2024-01-29T10:38:00.109Z,59.58825361629736
2024-01-29T10:41:20.903Z,59.2084361485321
2024-01-29T10:44:41.070Z,58.88623059766734
2024-01-29T10:48:01.266Z,58.71813553284141
2024-01-29T10:51:21.274Z,58.37194731510389
2024-01-29T10:54:41.883Z,58.354693963987366
2024-01-29T10:58:03.532Z,58.03465087072103
2024-01-29T11:02:03.807Z,58.427446352035936
2024-01-29T11:05:25.767Z,57.43975472412237
2024-01-29T11:08:46.511Z,57.190856301680455
2024-01-29T11:12:06.802Z,57.38768884940794
2024-01-29T11:15:27.600Z,57.70314607459047
2024-01-29T11:19:03.550Z,58.06427674120158
2024-01-29T11:24:39.020Z,57.220006620484334
2024-01-29T11:27:59.083Z,57.58193786722647
2024-01-29T11:35:54.861Z,57.994126802375135
2024-01-29T11:39:14.644Z,57.32004195288235
2024-01-29T11:42:35.143Z,56.85183068245135
2024-01-29T11:45:54.732Z,56.374435070475144
2024-01-29T11:49:14.920Z,56.96354570919374
2024-01-29T11:52:35.380Z,57.0776133874257
2024-01-29T11:55:55.665Z,57.25616235982366
2024-01-29T11:59:46.698Z,57.21770916731265
2024-01-29T12:03:07.562Z,57.7440117268228
2024-01-29T12:06:28.691Z,57.4063348380477
2024-01-29T12:09:48.148Z,57.26342721730052
2024-01-29T12:13:08.693Z,57.180339937591405
2024-01-29T12:17:06.415Z,57.42440848147074
2024-01-29T12:20:26.394Z,57.622529793808006
2024-01-29T12:23:52.358Z,57.38592149733
2024-01-29T12:27:13.127Z,57.70583239666309
2024-01-29T12:30:33.080Z,57.51210745301092
2024-01-29T12:33:53.599Z,57.68638341410264
2024-01-29T12:37:14.159Z,57.97671575216201
2024-01-29T12:40:34.141Z,58.30812128166272
2024-01-29T12:43:54.020Z,58.427659374931515
2024-01-29T12:47:14.735Z,58.43482477496291
2024-01-29T12:50:34.618Z,58.58620528158491
2024-01-29T12:53:55.232Z,58.73999487084622
2024-01-29T13:00:36.413Z,59.30852898053246
2024-01-29T13:03:56.438Z,59.92571005259368
2024-01-29T13:07:18.441Z,60.02925862995413
2024-01-29T13:10:38.709Z,60.00692959964842
2024-01-29T13:13:59.831Z,59.63906467331064
2024-01-29T13:17:20.242Z,59.9749776380042
2024-01-29T13:21:24.415Z,59.700285888086086
2024-01-29T13:24:45.008Z,59.68962533594419
2024-01-29T13:30:03.463Z,59.94559382595863
2024-01-29T13:33:24.568Z,60.07607241818588
2024-01-29T13:36:45.242Z,59.962796752654434
2024-01-29T13:40:05.637Z,60.041382752167394
2024-01-29T13:43:26.525Z,60.62067682927494
2024-01-29T13:46:47.131Z,60.70951549453277
2024-01-29T13:50:07.500Z,60.77032925309584
2024-01-29T13:53:28.601Z,61.64838920863525
2024-01-29T13:56:48.893Z,61.9911322142912
2024-01-29T14:00:09.282Z,61.78446977535218
2024-01-29T14:03:30.358Z,61.928121419585906
2024-01-29T14:06:50.668Z,62.51121065025801
2024-01-29T14:10:10.924Z,62.74861495790791
2024-01-29T14:13:31.564Z,63.34317244955775
2024-01-29T14:16:51.892Z,63.58121430425087
2024-01-29T14:20:12.766Z,63.65505387639494
2024-01-29T14:23:33.741Z,63.632442872428605
2024-01-29T14:26:54.017Z,64.19665356788784
2024-01-29T14:30:14.765Z,64.80511557256644
2024-01-29T14:42:13.414Z,65.07060561425735
2024-01-29T14:45:34.340Z,65.51425756569141
2024-01-29T14:48:54.458Z,65.79228789454494
2024-01-29T14:52:14.965Z,65.94878154769522
2024-01-29T14:55:36.476Z,66.03091007637067
2024-01-29T14:58:56.964Z,66.20708873070227
2024-01-29T15:02:17.133Z,66.48244176326011
2024-01-29T15:05:38.532Z,67.00978689780915
2024-01-29T15:08:58.584Z,67.24768872306046
2024-01-29T15:15:06.685Z,67.62283515056234
2024-01-29T15:18:26.942Z,67.62315026177824
2024-01-29T15:21:47.150Z,67.72529218234787
2024-01-29T15:25:07.085Z,68.1299939530879
2024-01-29T15:28:27.912Z,68.51504196696013
2024-01-29T15:31:48.920Z,68.74485918790053
2024-01-29T15:35:09.371Z,69.12980504424327
2024-01-29T15:38:30.290Z,69.52274640269574
2024-01-29T15:46:42.022Z,69.47895354644668
2024-01-29T15:50:02.627Z,69.63903216882319
2024-01-29T15:53:23.571Z,70.25905953576395
2024-01-29T15:56:43.934Z,70.57125066290807
2024-01-29T16:02:29.129Z,71.45853360296275
2024-01-29T16:05:49.373Z,71.82054169668932
2024-01-29T16:09:59.320Z,72.06147621482762
2024-01-29T16:13:20.168Z,72.38139755970867
2024-01-29T16:16:41.267Z,72.9923995929763
2024-01-29T16:20:01.555Z,73.6160963308924
2024-01-29T16:27:59.061Z,73.82802668130218
2024-01-29T16:32:21.617Z,73.78295744137358
2024-01-29T16:36:46.626Z,73.73365635138197
2024-01-29T16:40:24.638Z,74.48150179376076
2024-01-29T16:43:45.697Z,75.06642606371646
2024-01-29T16:47:05.978Z,74.93316727796415
2024-01-29T16:50:26.651Z,74.70161519329764
2024-01-29T16:53:47.195Z,74.78678093128998
2024-01-29T16:57:07.780Z,75.40726694473578
2024-01-29T17:00:28.762Z,75.61077462246062
2024-01-29T17:03:48.912Z,74.71049611814159
2024-01-29T17:09:30.645Z,73.78611823483585
2024-01-29T17:15:10.477Z,73.62580624737473
2024-01-29T17:20:48.968Z,73.14779948030558
2024-01-29T17:24:22.964Z,72.98759170861148
2024-01-29T17:27:44.147Z,72.90936380280101
2024-01-29T17:31:04.152Z,72.51564162434828
2024-01-29T17:34:25.314Z,72.45474842729543
2024-01-29T17:37:46.208Z,72.50253857574592
2024-01-29T17:41:06.199Z,72.44192728067286
2024-01-29T17:44:26.806Z,72.47439454760834
2024-01-29T17:47:46.625Z,72.44313108084549
2024-01-29T17:51:06.657Z,72.31063160272375
2024-01-29T17:54:27.749Z,72.33391767043362
2024-01-29T17:57:48.088Z,72.41845066076023
2024-01-29T18:01:09.180Z,72.30663522210804
2024-01-29T18:04:30.167Z,72.50735338137426
2024-01-29T18:07:51.113Z,72.5228803312638
2024-01-29T18:11:11.782Z,72.33525578499776
2024-01-29T18:14:33.168Z,72.17779692187386
2024-01-29T18:17:53.667Z,72.23761501848207
2024-01-29T18:22:59.085Z,72.09434549469998
2024-01-29T18:26:20.181Z,71.9580872971919
2024-01-29T18:29:40.628Z,71.98877896386604
2024-01-29T18:33:01.399Z,71.73584079237426
2024-01-29T18:36:21.896Z,71.56920084794577
2024-01-29T18:40:06.108Z,71.79444753021558
2024-01-29T18:43:27.112Z,72.04276793501737
2024-01-29T18:46:48.000Z,72.16393078957024
2024-01-29T18:50:08.988Z,71.93799904424826
2024-01-29T18:54:22.043Z,72.02576545078423
2024-01-29T18:59:18.390Z,72.09091853945674
2024-01-29T19:05:43.007Z,72.09402849118601
2024-01-29T19:09:03.351Z,72.10922590749173
2024-01-29T19:12:24.316Z,71.96924345174179
2024-01-29T19:15:44.997Z,72.41493928599166
2024-01-29T19:19:05.417Z,72.30942352889326
2024-01-29T19:22:26.998Z,72.1222593245163
2024-01-29T19:25:46.920Z,72.4925712342676
2024-01-29T19:29:06.899Z,72.4375001324973
2024-01-29T19:32:27.748Z,72.16981857377183
2024-01-29T19:35:47.528Z,72.02611633482108
2024-01-29T19:39:07.598Z,72.03530487630321
2024-01-29T19:45:48.360Z,72.7028088712945
2024-01-29T19:49:08.294Z,72.64609457275688
2024-01-29T19:52:30.203Z,72.61047297921847
2024-01-29T19:56:10.416Z,72.74736186387763
2024-01-29T19:59:30.840Z,72.53258868272138
2024-01-29T20:02:50.849Z,72.65599357091344
2024-01-29T20:06:10.894Z,72.81011078042569
2024-01-29T20:09:32.007Z,72.53467228978036
2024-01-29T20:12:52.049Z,72.63441650076584
2024-01-29T20:16:12.773Z,72.75293845534846
2024-01-29T20:19:33.620Z,72.7122620268744
2024-01-29T20:22:54.525Z,72.70390233613065
2024-01-29T20:26:15.973Z,72.82169312319488
2024-01-29T20:29:36.573Z,72.78316704095256
2024-01-29T20:34:36.506Z,73.41285277344527
2024-01-29T20:37:57.195Z,74.06216430761282
2024-01-29T20:42:21.402Z,74.35994777427177
2024-01-29T20:46:57.804Z,74.88753550367146
2024-01-29T20:50:18.516Z,74.87688749278374
2024-01-29T20:53:39.670Z,74.57162809508795
2024-01-29T21:00:06.810Z,75.28590394659096
2024-01-29T21:03:27.144Z,75.35468147331895
2024-01-29T21:06:46.890Z,75.43360216926938
2024-01-29T21:13:23.232Z,76.03619633376928
2024-01-29T21:16:44.047Z,76.20829558577829
2024-01-29T21:20:05.159Z,76.6003977165023
2024-01-29T21:23:25.632Z,77.06751236637366
2024-01-29T21:26:46.512Z,77.63196599230653
2024-01-29T21:30:07.068Z,78.14294351407949
2024-01-29T21:33:27.953Z,78.33616465689651
2024-01-29T21:36:49.053Z,78.63136368907728
2024-01-29T21:40:09.550Z,78.45742379284651
2024-01-29T21:44:09.774Z,78.79732868216901
2024-01-29T21:47:30.715Z,78.96334428453531
2024-01-29T21:50:51.853Z,79.17464763691221
2024-01-29T21:54:12.946Z,79.46857055613533
2024-01-29T21:57:33.611Z,79.85538129083477
2024-01-29T22:00:55.408Z,79.90934682445508
2024-01-29T22:04:17.070Z,80.19579424166972
2024-01-29T22:07:37.411Z,80.46060483475313
2024-01-29T22:10:57.818Z,80.72989119867034
2024-01-29T22:14:18.492Z,80.82380330701405
2024-01-29T22:18:26.668Z,81.0245838805868
2024-01-29T22:21:46.931Z,81.17035788245137
2024-01-29T22:25:07.236Z,81.18746765187106
2024-01-29T22:28:28.026Z,81.20527184115838
2024-01-29T22:31:48.567Z,81.2801764919275
2024-01-29T22:35:08.997Z,81.85811248167538
2024-01-29T22:38:29.739Z,81.83986752852766
2024-01-29T22:41:49.983Z,81.78461484100994
2024-01-29T22:45:10.671Z,81.71134516503713
2024-01-29T22:48:31.126Z,81.93768981291937
2024-01-29T22:51:52.093Z,81.96791391974003
2024-01-29T22:55:12.858Z,81.94193767268939
2024-01-29T22:58:33.580Z,82.33715853448682
2024-01-29T23:01:54.111Z,82.4737687488688
2024-01-29T23:05:14.700Z,82.17152222451477
2024-01-29T23:09:10.606Z,82.37186363283298
2024-01-29T23:12:30.864Z,82.29131650287614
2024-01-29T23:15:51.458Z,82.37850217634413
2024-01-29T23:19:22.901Z,82.45171119352298
2024-01-29T23:22:43.237Z,82.43552880572369
2024-01-29T23:27:08.483Z,82.6683313725333
2024-01-29T23:31:51.122Z,82.7517823894824
2024-01-29T23:35:11.207Z,82.69337738698518
2024-01-29T23:44:14.044Z,82.62672275533919
2024-01-29T23:47:34.613Z,82.57245789696063
2024-01-29T23:50:54.800Z,82.73027723202242
2024-01-29T23:54:16.328Z,82.72694267143082
2024-01-29T23:57:36.552Z,82.82243019563013
